Time;durP1;ratioP1;P1;durP2;ratioP2;P2;SDS_P1;SDS_P2;PMS_P1;PMS_P2;Temp;Humidity;BMP_temperature;BMP_pressure;BME280_temperature;BME280_humidity;BME280_pressure;Samples;Min_cycle;Max_cycle;Signal;HPM_P1;HPM_P2
2022/07/17 00:02:06;;;;;;;1.48;0.85;;;12.60;99.90;;;;;;4995716;28;20042;-74
2022/07/17 00:04:31;;;;;;;3.72;1.13;;;11.90;99.90;;;;;;5012145;28;20046;-74
2022/07/17 00:06:57;;;;;;;3.60;0.60;;;12.10;99.90;;;;;;5012006;28;20049;-74
2022/07/17 00:09:23;;;;;;;3.33;0.95;;;12.40;99.90;;;;;;4995700;28;20038;-74
2022/07/17 00:11:49;;;;;;;1.20;0.75;;;11.90;99.90;;;;;;5011995;28;20068;-75
2022/07/17 00:14:14;;;;;;;4.22;0.95;;;12.10;99.90;;;;;;5012275;28;20137;-74
2022/07/17 00:16:40;;;;;;;1.10;0.70;;;12.00;99.90;;;;;;4995577;28;20042;-75
2022/07/17 00:19:06;;;;;;;5.38;0.88;;;12.00;99.90;;;;;;5011946;28;20054;-74
2022/07/17 00:21:32;;;;;;;1.60;0.88;;;12.00;99.90;;;;;;4995810;28;20050;-75
2022/07/17 00:23:58;;;;;;;0.70;0.52;;;12.00;99.90;;;;;;4995768;28;20038;-75
2022/07/17 00:26:24;;;;;;;2.70;0.90;;;12.00;99.90;;;;;;4995464;28;20048;-74
2022/07/17 00:28:50;;;;;;;3.05;1.05;;;12.20;99.90;;;;;;4995751;28;20044;-74
2022/07/17 00:31:15;;;;;;;1.33;0.75;;;11.80;99.90;;;;;;4979306;28;20108;-75
2022/07/17 00:33:41;;;;;;;3.00;0.80;;;12.20;99.90;;;;;;4995690;28;20478;-74
2022/07/17 00:36:07;;;;;;;1.17;0.63;;;11.80;99.90;;;;;;4995401;28;20085;-74
2022/07/17 00:38:33;;;;;;;1.20;0.77;;;12.10;99.90;;;;;;5011785;28;20116;-75
2022/07/17 00:40:59;;;;;;;1.23;0.85;;;11.70;99.90;;;;;;5011760;28;20042;-75
2022/07/17 00:43:25;;;;;;;2.33;0.93;;;11.80;99.90;;;;;;4995412;28;20057;-74
2022/07/17 00:46:02;;;;;;;2.13;0.90;;;12.00;99.90;;;;;;4995422;28;20041;-74
2022/07/17 00:48:28;;;;;;;2.47;0.77;;;11.60;99.90;;;;;;5011697;28;20192;-74
2022/07/17 00:50:54;;;;;;;1.25;0.60;;;11.60;99.90;;;;;;5011668;28;20092;-74
2022/07/17 00:53:21;;;;;;;2.08;1.00;;;12.10;99.90;;;;;;4995266;28;20069;-74
2022/07/17 00:55:48;;;;;;;0.88;0.57;;;11.70;99.90;;;;;;5011594;28;20042;-75
2022/07/17 00:58:19;;;;;;;2.60;0.88;;;12.00;99.90;;;;;;4997679;28;20111;-74
2022/07/17 01:00:47;;;;;;;3.63;0.80;;;11.60;99.90;;;;;;4999089;28;20049;-74
2022/07/17 01:03:14;;;;;;;0.90;0.50;;;11.50;99.90;;;;;;5015376;28;20155;-74
2022/07/17 01:05:40;;;;;;;1.30;0.60;;;12.00;99.90;;;;;;5015505;28;20401;-74
2022/07/17 01:08:06;;;;;;;1.77;0.85;;;11.60;99.90;;;;;;4999208;28;20030;-74
2022/07/17 01:10:32;;;;;;;1.42;0.77;;;11.80;99.90;;;;;;4998930;28;20034;-74
2022/07/17 01:12:57;;;;;;;1.25;0.70;;;11.40;99.90;;;;;;5015123;28;20038;-74
2022/07/17 01:15:23;;;;;;;1.40;0.70;;;11.50;99.90;;;;;;5015176;28;20527;-75
2022/07/17 01:17:49;;;;;;;1.15;0.65;;;11.80;99.90;;;;;;4999056;28;20045;-74
2022/07/17 01:20:15;;;;;;;0.98;0.70;;;11.80;99.90;;;;;;4998747;28;20034;-73
2022/07/17 01:22:46;;;;;;;3.85;0.90;;;11.50;99.90;;;;;;5015162;28;20053;-74
2022/07/17 01:25:13;;;;;;;2.95;0.80;;;11.60;99.90;;;;;;5014930;28;20041;-74
2022/07/17 01:27:39;;;;;;;1.02;0.50;;;11.30;99.90;;;;;;4998513;28;20034;-75
2022/07/17 01:30:06;;;;;;;1.05;0.60;;;11.60;99.90;;;;;;4998720;28;20050;-74
2022/07/17 01:32:36;;;;;;;1.50;0.70;;;11.30;99.90;;;;;;5014853;28;20041;-75
2022/07/17 01:35:03;;;;;;;1.02;0.80;;;11.20;99.90;;;;;;5015133;28;20485;-75
2022/07/17 01:37:29;;;;;;;1.20;0.75;;;11.30;99.90;;;;;;5014821;28;20049;-74
2022/07/17 01:39:55;;;;;;;1.42;0.82;;;11.50;99.90;;;;;;5014678;28;20045;-75
2022/07/17 01:42:23;;;;;;;1.48;0.73;;;11.20;99.90;;;;;;5014770;28;20124;-74
2022/07/17 01:44:49;;;;;;;1.45;0.70;;;11.20;99.90;;;;;;5014872;28;20490;-75
2022/07/17 01:47:15;;;;;;;1.55;0.70;;;11.10;99.90;;;;;;5014549;28;20512;-74
2022/07/17 01:49:48;;;;;;;4.43;1.20;;;11.60;99.90;;;;;;5014475;28;20041;-74
2022/07/17 01:52:15;;;;;;;2.13;1.10;;;11.20;99.90;;;;;;4998183;28;20039;-75
2022/07/17 01:54:42;;;;;;;2.63;1.00;;;11.20;99.90;;;;;;5014639;28;20490;-75
2022/07/17 01:57:08;;;;;;;1.95;0.65;;;11.10;99.90;;;;;;5014550;28;20049;-74
2022/07/17 01:59:35;;;;;;;2.10;0.80;;;11.20;99.90;;;;;;4998067;28;20042;-74
2022/07/17 02:02:02;;;;;;;0.98;0.63;;;11.00;99.90;;;;;;5014636;28;20041;-75
2022/07/17 02:04:28;;;;;;;4.65;1.00;;;11.20;99.90;;;;;;5014268;28;20132;-74
2022/07/17 02:06:54;;;;;;;0.68;0.60;;;11.20;99.90;;;;;;5014166;28;20553;-74
2022/07/17 02:09:21;;;;;;;1.63;0.80;;;11.20;99.90;;;;;;5013376;28;20034;-74
2022/07/17 02:11:47;;;;;;;1.17;0.75;;;11.60;99.90;;;;;;4997812;28;20038;-74
2022/07/17 02:14:13;;;;;;;1.33;0.80;;;11.10;99.90;;;;;;4997891;28;20084;-74
2022/07/17 02:16:38;;;;;;;1.58;0.80;;;11.10;99.90;;;;;;4997684;28;20046;-75
2022/07/17 02:19:04;;;;;;;2.97;1.05;;;11.20;99.90;;;;;;5013976;28;20045;-75
2022/07/17 02:21:30;;;;;;;1.48;0.65;;;11.20;99.90;;;;;;4997634;28;20053;-74
2022/07/17 02:23:56;;;;;;;1.90;1.10;;;11.20;99.90;;;;;;5014196;28;20382;-74
2022/07/17 02:26:22;;;;;;;2.35;0.80;;;11.20;99.90;;;;;;4997723;28;20516;-74
2022/07/17 02:28:48;;;;;;;4.07;1.20;;;11.40;99.90;;;;;;4997739;28;20042;-74
2022/07/17 02:31:13;;;;;;;2.35;0.93;;;11.60;99.90;;;;;;5013796;28;20049;-74
2022/07/17 02:33:39;;;;;;;1.70;1.00;;;11.10;99.90;;;;;;4997391;28;20038;-74
2022/07/17 02:36:06;;;;;;;1.40;1.00;;;11.20;99.90;;;;;;5013605;28;20042;-74
2022/07/17 02:38:31;;;;;;;5.57;1.00;;;11.20;99.90;;;;;;4997384;28;20104;-75
2022/07/17 02:40:57;;;;;;;2.60;1.08;;;11.20;99.90;;;;;;5013584;28;20452;-75
2022/07/17 02:43:23;;;;;;;1.98;1.17;;;11.20;99.90;;;;;;4997271;28;20048;-75
2022/07/17 02:45:48;;;;;;;1.77;1.08;;;11.20;99.90;;;;;;5013639;28;20049;-75
2022/07/17 02:48:14;;;;;;;1.60;0.90;;;11.10;99.90;;;;;;5013505;28;20048;-75
2022/07/17 02:50:40;;;;;;;2.78;1.35;;;12.40;99.90;;;;;;4997113;28;20500;-74
2022/07/17 02:53:05;;;;;;;0.93;0.52;;;11.30;99.90;;;;;;5013587;28;20081;-74
2022/07/17 02:55:31;;;;;;;4.68;1.40;;;10.90;99.90;;;;;;5013330;28;20057;-74
2022/07/17 02:57:57;;;;;;;1.90;1.17;;;11.00;99.90;;;;;;5013201;28;20041;-74
2022/07/17 03:00:23;;;;;;;2.22;1.10;;;10.90;99.90;;;;;;4997169;28;20100;-74
2022/07/17 03:02:49;;;;;;;3.88;1.48;;;10.90;99.90;;;;;;5013197;28;20041;-74
2022/07/17 03:05:16;;;;;;;2.88;1.17;;;10.80;99.90;;;;;;5013102;28;20053;-74
2022/07/17 03:07:43;;;;;;;1.52;1.08;;;10.50;99.90;;;;;;4996717;28;20041;-74
2022/07/17 03:10:10;;;;;;;1.30;0.95;;;10.90;99.90;;;;;;5013064;28;20060;-74
2022/07/17 03:12:36;;;;;;;2.10;1.00;;;10.60;99.90;;;;;;4996670;28;20049;-74
2022/07/17 03:15:03;;;;;;;0.93;0.80;;;10.80;99.90;;;;;;5012870;28;20128;-74
2022/07/17 03:17:29;;;;;;;0.88;0.73;;;10.90;99.90;;;;;;5012973;28;20042;-75
2022/07/17 03:19:54;;;;;;;4.70;0.93;;;10.80;99.90;;;;;;4996781;28;20048;-74
2022/07/17 03:22:20;;;;;;;1.73;1.20;;;10.70;99.90;;;;;;4996757;28;20042;-75
2022/07/17 03:24:46;;;;;;;1.10;0.70;;;10.80;99.90;;;;;;4996389;28;20038;-74
2022/07/17 03:27:11;;;;;;;2.58;1.20;;;10.80;99.90;;;;;;5012638;28;20042;-75
2022/07/17 03:29:37;;;;;;;4.38;1.10;;;10.90;99.90;;;;;;5012684;28;20383;-74
2022/07/17 03:32:03;;;;;;;2.42;0.95;;;10.70;99.90;;;;;;4996296;28;20494;-74
2022/07/17 03:34:28;;;;;;;1.35;0.80;;;10.60;99.90;;;;;;5012678;28;20444;-74
2022/07/17 03:36:54;;;;;;;3.60;0.90;;;11.20;99.90;;;;;;5012631;28;20133;-73
2022/07/17 03:39:20;;;;;;;3.05;1.17;;;10.60;99.90;;;;;;4996511;28;20087;-74
2022/07/17 03:41:45;;;;;;;1.70;0.90;;;10.60;99.90;;;;;;5012389;28;20045;-74
2022/07/17 03:44:11;;;;;;;1.60;0.70;;;10.60;99.90;;;;;;4996103;28;20045;-74
2022/07/17 03:46:37;;;;;;;1.83;1.10;;;10.20;99.90;;;;;;5012348;28;20409;-74
2022/07/17 03:49:02;;;;;;;1.23;0.85;;;10.60;99.90;;;;;;4996028;28;20565;-74
2022/07/17 03:51:28;;;;;;;1.30;0.73;;;10.60;99.90;;;;;;5012352;28;20100;-74
2022/07/17 03:53:54;;;;;;;0.95;0.75;;;10.60;99.90;;;;;;4996179;28;20060;-74
2022/07/17 03:56:20;;;;;;;1.50;0.90;;;10.60;99.90;;;;;;5012215;28;20041;-74
2022/07/17 03:58:45;;;;;;;1.42;0.80;;;10.50;99.90;;;;;;5012179;28;20034;-75
2022/07/17 04:01:11;;;;;;;2.08;0.95;;;10.60;99.90;;;;;;5012239;28;20046;-74
2022/07/17 04:03:37;;;;;;;1.63;1.00;;;10.40;99.90;;;;;;5012120;28;20125;-74
2022/07/17 04:06:03;;;;;;;1.70;1.33;;;10.50;99.90;;;;;;4995740;28;20133;-74
2022/07/17 04:08:29;;;;;;;2.97;1.05;;;10.60;99.90;;;;;;5012079;28;20065;-75
2022/07/17 04:10:55;;;;;;;1.95;0.88;;;10.50;99.90;;;;;;5012459;28;20049;-73
2022/07/17 04:13:21;;;;;;;2.60;1.05;;;10.60;99.90;;;;;;5012527;28;20042;-75
2022/07/17 04:15:49;;;;;;;2.10;0.90;;;10.40;99.90;;;;;;5011929;28;20161;-74
2022/07/17 04:18:16;;;;;;;1.35;1.08;;;10.80;99.90;;;;;;5012216;28;20128;-75
2022/07/17 04:20:42;;;;;;;0.68;0.60;;;10.80;99.90;;;;;;5011940;28;20080;-74
2022/07/17 04:23:07;;;;;;;3.92;0.90;;;10.90;99.90;;;;;;5011943;28;20518;-74
2022/07/17 04:25:34;;;;;;;1.23;0.77;;;10.90;99.90;;;;;;5012191;28;20108;-74
2022/07/17 04:28:00;;;;;;;2.33;1.05;;;10.90;99.90;;;;;;4995805;28;20482;-74
2022/07/17 04:30:26;;;;;;;4.57;0.80;;;11.10;99.90;;;;;;5011906;28;20042;-74
2022/07/17 04:32:52;;;;;;;1.33;0.75;;;11.00;99.90;;;;;;5015866;28;20052;-75
2022/07/17 04:35:18;;;;;;;1.05;0.80;;;11.10;99.90;;;;;;5002015;28;20038;-74
2022/07/17 04:37:44;;;;;;;1.35;0.70;;;11.20;99.90;;;;;;5018570;28;20050;-74
2022/07/17 04:40:11;;;;;;;1.17;0.68;;;11.20;99.90;;;;;;5018359;28;20037;-74
2022/07/17 04:42:37;;;;;;;0.63;0.60;;;11.30;99.90;;;;;;5018530;28;20551;-74
2022/07/17 04:45:03;;;;;;;2.25;0.90;;;11.30;99.90;;;;;;5018344;28;20042;-74
2022/07/17 04:47:29;;;;;;;1.67;1.10;;;11.30;99.90;;;;;;5018118;28;20038;-74
2022/07/17 04:49:54;;;;;;;2.88;0.90;;;11.30;99.90;;;;;;5018260;28;20617;-74
2022/07/17 04:52:20;;;;;;;2.70;1.02;;;11.40;99.90;;;;;;5018515;28;20077;-75
2022/07/17 04:54:46;;;;;;;2.40;1.23;;;11.40;99.90;;;;;;5002045;28;20049;-73
2022/07/17 04:57:11;;;;;;;1.33;1.00;;;11.50;99.90;;;;;;5001888;28;20109;-74
2022/07/17 04:59:37;;;;;;;0.70;0.68;;;11.50;99.90;;;;;;5018066;28;20080;-74
2022/07/17 05:02:03;;;;;;;1.58;0.90;;;11.60;99.90;;;;;;5018385;28;20413;-75
2022/07/17 05:04:30;;;;;;;1.98;1.00;;;11.60;99.90;;;;;;5018087;28;20077;-74
2022/07/17 05:06:55;;;;;;;2.47;0.80;;;11.70;99.90;;;;;;5001671;28;20034;-74
2022/07/17 05:09:22;;;;;;;1.70;0.82;;;11.70;99.90;;;;;;5001686;28;20414;-74
2022/07/17 05:11:47;;;;;;;1.55;0.85;;;11.80;99.90;;;;;;5001650;28;20406;-74
2022/07/17 05:14:13;;;;;;;1.85;1.10;;;12.20;99.90;;;;;;5001508;28;20061;-74
2022/07/17 05:16:39;;;;;;;1.38;0.80;;;11.90;99.90;;;;;;5018371;28;20091;-74
2022/07/17 05:19:05;;;;;;;8.63;1.10;;;11.90;99.90;;;;;;5002565;28;20050;-75
2022/07/17 05:21:30;;;;;;;8.63;1.05;;;12.00;99.90;;;;;;5017907;28;20383;-75
2022/07/17 05:23:56;;;;;;;1.15;0.70;;;12.10;99.90;;;;;;5018143;28;20041;-75
2022/07/17 05:26:22;;;;;;;0.50;0.45;;;12.30;99.90;;;;;;5017837;28;20044;-75
2022/07/17 05:28:47;;;;;;;1.45;0.70;;;12.30;99.90;;;;;;5001486;28;20489;-75
2022/07/17 05:31:13;;;;;;;2.20;0.63;;;12.30;99.90;;;;;;5017828;28;20095;-75
2022/07/17 05:33:39;;;;;;;1.00;0.52;;;12.40;99.90;;;;;;5001556;28;20042;-76
2022/07/17 05:36:04;;;;;;;1.05;0.65;;;12.60;99.90;;;;;;5017840;28;20052;-75
2022/07/17 05:38:30;;;;;;;1.73;0.80;;;13.00;99.90;;;;;;5017792;28;20046;-75
2022/07/17 05:40:56;;;;;;;6.07;1.13;;;12.60;99.90;;;;;;5002195;28;20073;-86
2022/07/17 05:43:21;;;;;;;3.15;0.80;;;12.90;99.90;;;;;;5016763;28;20053;-86
2022/07/17 05:45:47;;;;;;;3.35;0.50;;;12.80;99.90;;;;;;4997828;28;20128;-84
2022/07/17 05:48:13;;;;;;;0.95;0.57;;;12.70;99.90;;;;;;5014588;28;20136;-74
2022/07/17 05:50:39;;;;;;;3.22;0.70;;;12.80;99.90;;;;;;5014961;28;20092;-86
2022/07/17 05:53:04;;;;;;;0.50;0.50;;;13.30;99.90;;;;;;5014730;28;20132;-79
2022/07/17 05:55:30;;;;;;;2.78;0.75;;;13.30;99.90;;;;;;4998124;28;20048;-75
2022/07/17 05:57:56;;;;;;;1.88;0.85;;;13.10;99.90;;;;;;4998447;28;20080;-91
2022/07/17 06:00:22;;;;;;;2.25;0.47;;;13.00;99.90;;;;;;4998308;28;20045;-76
2022/07/17 06:02:47;;;;;;;2.58;0.55;;;13.50;99.90;;;;;;4997932;28;20190;-76
2022/07/17 06:05:13;;;;;;;1.00;0.60;;;13.20;99.90;;;;;;4998018;28;20046;-76
2022/07/17 06:07:39;;;;;;;1.13;0.63;;;13.20;99.90;;;;;;5014523;28;20034;-76
2022/07/17 06:10:05;;;;;;;0.63;0.52;;;13.30;99.90;;;;;;5014198;28;20132;-75
2022/07/17 06:12:31;;;;;;;1.35;0.60;;;13.20;99.90;;;;;;5014115;28;20069;-76
2022/07/17 06:14:57;;;;;;;1.08;0.60;;;13.40;99.90;;;;;;5013792;28;20469;-75
2022/07/17 06:17:23;;;;;;;2.15;0.45;;;13.40;99.90;;;;;;5014071;28;20057;-76
2022/07/17 06:19:51;;;;;;;1.38;0.55;;;13.60;99.90;;;;;;5013998;28;20042;-76
2022/07/17 06:22:20;;;;;;;1.95;0.40;;;13.70;99.90;;;;;;5014088;28;20417;-75
2022/07/17 06:24:47;;;;;;;0.73;0.57;;;14.00;99.90;;;;;;5014241;28;20046;-76
2022/07/17 06:27:14;;;;;;;1.13;0.50;;;14.10;99.90;;;;;;5013963;28;20445;-76
2022/07/17 06:29:39;;;;;;;2.92;0.50;;;14.30;99.90;;;;;;5013832;28;20432;-76
2022/07/17 06:32:06;;;;;;;0.32;0.32;;;14.40;99.90;;;;;;4997526;28;20048;-76
2022/07/17 06:34:31;;;;;;;3.80;0.57;;;14.70;99.90;;;;;;5014025;28;20041;-76
2022/07/17 06:36:57;;;;;;;1.90;0.77;;;14.80;99.90;;;;;;4997346;28;20049;-76
2022/07/17 06:39:23;;;;;;;0.52;0.50;;;15.00;99.90;;;;;;4997578;28;20460;-76
2022/07/17 06:41:48;;;;;;;2.03;0.60;;;15.10;99.90;;;;;;5013838;28;20132;-75
2022/07/17 06:44:14;;;;;;;1.55;0.70;;;15.30;99.90;;;;;;5013438;28;20038;-76
2022/07/17 06:46:40;;;;;;;0.65;0.40;;;15.50;99.90;;;;;;5013341;28;20088;-76
2022/07/17 06:49:05;;;;;;;1.80;0.60;;;15.60;99.90;;;;;;4997078;28;20100;-76
2022/07/17 06:51:31;;;;;;;0.85;0.50;;;15.70;99.90;;;;;;4997311;28;20076;-76
2022/07/17 06:53:57;;;;;;;2.30;0.60;;;15.70;99.90;;;;;;5013263;28;20088;-76
2022/07/17 06:56:23;;;;;;;3.50;0.80;;;15.80;99.90;;;;;;4996656;28;20044;-76
2022/07/17 06:58:48;;;;;;;2.75;0.60;;;15.90;99.90;;;;;;5013174;28;20038;-76
2022/07/17 07:01:14;;;;;;;0.73;0.60;;;15.90;99.90;;;;;;4996882;28;20104;-75
2022/07/17 07:03:40;;;;;;;0.35;0.35;;;16.10;99.90;;;;;;5013250;28;20045;-76
2022/07/17 07:06:06;;;;;;;1.48;0.80;;;16.20;99.90;;;;;;4996888;28;20034;-75
2022/07/17 07:08:33;;;;;;;0.32;0.32;;;16.30;99.90;;;;;;5013013;28;20042;-76
2022/07/17 07:11:00;;;;;;;2.25;0.60;;;16.20;99.90;;;;;;4996677;28;20038;-76
2022/07/17 07:13:26;;;;;;;1.27;0.70;;;16.30;99.90;;;;;;4996644;28;20076;-76
2022/07/17 07:15:51;;;;;;;1.75;0.30;;;16.30;99.90;;;;;;5012696;28;20101;-76
2022/07/17 07:18:17;;;;;;;0.57;0.45;;;16.30;99.90;;;;;;4996818;28;20057;-76
2022/07/17 07:20:43;;;;;;;0.57;0.50;;;16.30;99.90;;;;;;4996552;28;20104;-76
2022/07/17 07:23:09;;;;;;;0.57;0.40;;;16.50;99.90;;;;;;5012859;28;20108;-76
2022/07/17 07:25:35;;;;;;;1.88;0.60;;;16.40;99.90;;;;;;4996473;28;20044;-76
2022/07/17 07:28:02;;;;;;;0.63;0.55;;;16.40;99.90;;;;;;5012867;28;20046;-76
2022/07/17 07:30:27;;;;;;;1.35;0.38;;;16.40;99.90;;;;;;4996382;28;20084;-76
2022/07/17 07:32:53;;;;;;;0.40;0.40;;;16.40;99.90;;;;;;4996581;28;20082;-76
2022/07/17 07:35:19;;;;;;;0.75;0.45;;;16.50;99.90;;;;;;5012924;28;20049;-76
2022/07/17 07:37:44;;;;;;;2.05;0.60;;;16.50;99.90;;;;;;5012841;28;20052;-76
2022/07/17 07:40:11;;;;;;;0.95;0.50;;;16.70;99.90;;;;;;4996500;28;20037;-76
2022/07/17 07:42:38;;;;;;;1.85;0.70;;;16.60;99.90;;;;;;5012538;28;20072;-76
2022/07/17 07:45:04;;;;;;;1.65;0.65;;;16.60;99.90;;;;;;5012459;28;20053;-76
2022/07/17 07:47:30;;;;;;;0.80;0.47;;;16.70;99.90;;;;;;5012384;28;20038;-76
2022/07/17 07:49:55;;;;;;;1.55;0.70;;;16.80;99.90;;;;;;5012592;28;20505;-76
2022/07/17 07:52:21;;;;;;;1.23;0.47;;;16.80;99.90;;;;;;5012599;28;20034;-76
2022/07/17 07:54:47;;;;;;;1.10;0.50;;;16.90;99.90;;;;;;5012334;28;20095;-76
2022/07/17 07:57:13;;;;;;;1.20;0.60;;;;;;;;;;4996751;28;20046;-76
2022/07/17 07:59:39;;;;;;;1.27;0.50;;;17.00;99.90;;;;;;5012294;28;20383;-76
2022/07/17 08:02:04;;;;;;;0.55;0.50;;;17.20;99.90;;;;;;4996053;28;20157;-76
2022/07/17 08:04:30;;;;;;;2.42;0.80;;;17.30;99.90;;;;;;5012231;28;20135;-76
2022/07/17 08:06:56;;;;;;;0.43;0.43;;;17.20;99.90;;;;;;5011505;28;20482;-76
2022/07/17 08:09:23;;;;;;;1.88;0.65;;;17.20;99.90;;;;;;5012079;28;20045;-76
2022/07/17 08:11:48;;;;;;;0.95;0.60;;;17.30;99.90;;;;;;5012034;28;20405;-76
2022/07/17 08:14:14;;;;;;;0.88;0.50;;;17.40;99.90;;;;;;5012350;28;20034;-76
2022/07/17 08:16:40;;;;;;;0.57;0.50;;;17.40;99.90;;;;;;4998946;28;20059;-76
2022/07/17 08:19:06;;;;;;;1.55;0.50;;;17.40;99.90;;;;;;5015291;28;20099;-76
2022/07/17 08:21:31;;;;;;;1.27;0.70;;;17.40;99.90;;;;;;5015506;28;20041;-76
2022/07/17 08:23:57;;;;;;;1.30;0.70;;;17.60;99.90;;;;;;4998899;28;20077;-76
2022/07/17 08:26:23;;;;;;;0.70;0.47;;;17.50;99.90;;;;;;5015123;28;20562;-76
2022/07/17 08:28:49;;;;;;;2.28;0.60;;;17.60;99.90;;;;;;5015501;28;20048;-76
2022/07/17 08:31:14;;;;;;;1.15;0.47;;;17.60;99.90;;;;;;5015158;28;20080;-76
2022/07/17 08:33:40;;;;;;;0.70;0.50;;;17.70;99.90;;;;;;4998755;28;20514;-76
2022/07/17 08:36:06;;;;;;;0.80;0.50;;;17.40;99.90;;;;;;4999066;28;20041;-76
2022/07/17 08:38:32;;;;;;;2.30;0.40;;;17.40;99.90;;;;;;4966863;28;20456;-76
2022/07/17 08:40:58;;;;;;;1.00;0.60;;;17.50;99.90;;;;;;4982574;28;20084;-76
2022/07/17 08:43:25;;;;;;;0.38;0.38;;;17.70;99.90;;;;;;4998962;28;20038;-76
2022/07/17 08:45:51;;;;;;;0.60;0.50;;;17.80;99.90;;;;;;5014850;28;20102;-76
2022/07/17 08:48:18;;;;;;;1.27;0.57;;;18.00;99.90;;;;;;5015179;28;20374;-76
2022/07/17 08:50:45;;;;;;;5.35;0.68;;;17.90;99.90;;;;;;5015259;28;20041;-76
2022/07/17 08:53:11;;;;;;;0.50;0.50;;;18.10;99.90;;;;;;4998591;28;20053;-76
2022/07/17 08:55:37;;;;;;;4.43;0.75;;;18.50;99.90;;;;;;4998818;28;20041;-76
2022/07/17 08:58:06;;;;;;;2.35;0.60;;;18.50;99.90;;;;;;5016660;28;20042;-76
2022/07/17 09:00:32;;;;;;;0.43;0.43;;;18.60;99.90;;;;;;4998787;28;20374;-77
2022/07/17 09:03:02;;;;;;;2.03;0.70;;;18.90;99.90;;;;;;4998404;28;20125;-76
2022/07/17 09:05:39;;;;;;;1.35;0.65;;;18.80;99.90;;;;;;5014845;28;20103;-76
2022/07/17 09:08:07;;;;;;;0.60;0.47;;;18.80;99.90;;;;;;5014834;28;20049;-77
2022/07/17 09:10:37;;;;;;;0.98;0.60;;;18.80;99.90;;;;;;5015037;28;20536;-77
2022/07/17 09:13:44;;;;;;;1.85;0.55;;;18.90;99.90;;;;;;5014765;28;20052;-77
2022/07/17 09:16:12;;;;;;;0.90;0.80;;;19.10;99.90;;;;;;4936104;29;20053;-77
2022/07/17 09:18:49;;;;;;;1.17;0.50;;;19.10;99.90;;;;;;4953547;28;20137;-77
2022/07/17 09:21:24;;;;;;;1.45;0.60;;;19.20;99.90;;;;;;4993227;28;20053;-77
2022/07/17 09:24:05;;;;;;;0.55;0.55;;;19.20;99.90;;;;;;5002643;28;20052;-77
2022/07/17 09:26:33;;;;;;;1.48;0.45;;;19.30;99.90;;;;;;5018268;28;20109;-77
2022/07/17 09:29:03;;;;;;;1.00;0.55;;;19.20;99.90;;;;;;5018274;28;20041;-76
2022/07/17 09:31:31;;;;;;;0.93;0.57;;;19.50;99.90;;;;;;5018388;28;20048;-76
2022/07/17 09:33:58;;;;;;;1.85;0.55;;;19.60;99.90;;;;;;5018446;28;20034;-77
2022/07/17 09:36:24;;;;;;;1.17;0.55;;;19.40;99.90;;;;;;5018423;28;20056;-77
2022/07/17 09:38:55;;;;;;;1.13;0.60;;;19.50;99.90;;;;;;5001835;28;20037;-77
2022/07/17 09:41:23;;;;;;;1.83;0.60;;;19.40;99.90;;;;;;5002050;28;20041;-77
2022/07/17 09:43:51;;;;;;;1.15;0.63;;;19.40;99.90;;;;;;5018010;28;20041;-77
2022/07/17 09:46:23;;;;;;;0.28;0.28;;;19.50;99.90;;;;;;5018128;28;20485;-77
2022/07/17 09:49:03;;;;;;;2.15;0.50;;;19.80;99.90;;;;;;5017960;28;20041;-77
2022/07/17 09:51:32;;;;;;;1.40;0.60;;;19.80;99.90;;;;;;5017818;28;20041;-77
2022/07/17 09:54:02;;;;;;;1.98;0.88;;;20.00;99.90;;;;;;5001384;28;20126;-77
2022/07/17 09:56:33;;;;;;;2.28;0.80;;;20.10;99.90;;;;;;5001742;28;20482;-77
2022/07/17 09:59:04;;;;;;;;;;;20.10;99.90;;;;;;5018442;28;20489;-77
2022/07/17 10:01:30;;;;;;;;;;;20.20;99.90;;;;;;5018223;28;20371;-77
2022/07/17 10:03:56;;;;;;;0.73;0.55;;;20.30;99.90;;;;;;5035656;28;19960;-76
2022/07/17 10:06:23;;;;;;;1.00;0.60;;;20.30;99.90;;;;;;5001500;28;20401;-77
2022/07/17 10:08:50;;;;;;;0.82;0.50;;;20.40;99.90;;;;;;5001224;28;20090;-77
2022/07/17 10:11:20;;;;;;;0.55;0.40;;;20.40;99.90;;;;;;5017493;28;20045;-77
2022/07/17 10:13:47;;;;;;;1.50;0.55;;;20.30;99.90;;;;;;5017623;28;20041;-77
2022/07/17 10:16:14;;;;;;;0.30;0.30;;;20.30;99.90;;;;;;5017342;28;20080;-77
2022/07/17 10:18:44;;;;;;;0.80;0.55;;;20.30;99.90;;;;;;5017301;28;20049;-77
2022/07/17 10:21:19;;;;;;;0.93;0.60;;;20.30;99.90;;;;;;5001201;28;20038;-77
2022/07/17 10:24:09;;;;;;;3.03;0.70;;;20.40;99.90;;;;;;5017513;28;20512;-77
2022/07/17 10:26:43;;;;;;;1.35;0.70;;;20.50;99.90;;;;;;4991411;28;20053;-77
2022/07/17 10:29:31;;;;;;;0.90;0.70;;;20.60;99.90;;;;;;5000781;28;20099;-77
2022/07/17 10:31:58;;;;;;;4.22;0.50;;;;;;;;;;5016782;28;20052;-77
2022/07/17 10:34:38;;;;;;;1.38;0.68;;;;;;;;;;5017036;28;20041;-77
2022/07/17 10:37:14;;;;;;;2.83;0.75;;;;;;;;;;5001050;28;20045;-76
2022/07/17 10:39:41;;;;;;;0.93;0.65;;;;;;;;;;5016958;28;20094;-76
2022/07/17 10:42:07;;;;;;;0.95;0.60;;;;;;;;;;5000668;28;20103;-76
2022/07/17 10:44:33;;;;;;;0.57;0.43;;;;;;;;;;5016899;28;20049;-76
2022/07/17 10:46:59;;;;;;;1.95;0.68;;;;;;;;;;5000542;28;20044;-76
2022/07/17 10:49:26;;;;;;;1.00;0.40;;;;;;;;;;5000821;28;20049;-77
2022/07/17 10:51:52;;;;;;;1.08;0.43;;;;;;;;;;5016661;28;20041;-77
2022/07/17 10:54:20;;;;;;;3.05;0.85;;;;;;;;;;5016645;28;20073;-77
2022/07/17 10:56:47;;;;;;;1.55;0.60;;;;;;;;;;5000330;28;20038;-77
2022/07/17 10:59:13;;;;;;;1.55;0.65;;;;;;;;;;5016623;28;20038;-77
2022/07/17 11:01:39;;;;;;;0.73;0.50;;;;;;;;;;5000533;28;20412;-77
2022/07/17 11:04:06;;;;;;;0.43;0.35;;;;;;;;;;5016524;28;20048;-76
2022/07/17 11:06:33;;;;;;;1.40;0.60;;;;;;;;;;5016470;28;20050;-76
2022/07/17 11:09:01;;;;;;;0.77;0.50;;;;;;;;;;5016857;28;20132;-77
2022/07/17 11:11:39;;;;;;;2.55;0.70;;;;;;;;;;5016379;28;20072;-77
2022/07/17 11:14:16;;;;;;;1.00;0.70;;;;;;;;;;5016549;28;20041;-77
2022/07/17 11:16:47;;;;;;;0.77;0.50;;;;;;;;;;5016251;28;20053;-77
2022/07/17 11:19:20;;;;;;;0.47;0.40;;;;;;;;;;5016184;28;20076;-77
2022/07/17 11:21:47;;;;;;;1.85;0.57;;;;;;;;;;4999684;28;20051;-77
2022/07/17 11:24:13;;;;;;;1.70;0.80;;;;;;;;;;4999672;28;20414;-77
2022/07/17 11:26:39;;;;;;;1.70;0.80;;;;;;;;;;5015858;28;20038;-77
2022/07/17 11:29:05;;;;;;;2.47;0.60;;;;;;;;;;4999628;28;20041;-77
2022/07/17 11:31:31;;;;;;;1.40;0.88;;;;;;;;;;5016205;28;20041;-76
2022/07/17 11:33:59;;;;;;;1.10;0.50;;;;;;;;;;5016484;28;20045;-77
2022/07/17 11:36:26;;;;;;;2.35;0.60;;;;;;;;;;5015906;28;20128;-77
2022/07/17 11:38:54;;;;;;;1.05;0.52;;;;;;;;;;5015870;28;20041;-77
2022/07/17 11:41:20;;;;;;;1.70;0.60;;;;;;;;;;4998893;28;20049;-77
2022/07/17 11:43:47;;;;;;;0.40;0.40;;;;;;;;;;5015476;28;20195;-77
2022/07/17 11:46:14;;;;;;;1.15;0.70;;;;;;;;;;5015796;28;20049;-77
2022/07/17 11:48:44;;;;;;;0.40;0.30;;;;;;;;;;4999236;28;20049;-77
2022/07/17 11:51:10;;;;;;;1.03;0.60;;;;;;;;;;4999672;28;20033;-77
2022/07/17 11:53:37;;;;;;;1.02;0.60;;;;;;;;;;5015599;28;20041;-77
2022/07/17 11:56:04;;;;;;;1.10;0.60;;;;;;;;;;5015857;28;20524;-77
2022/07/17 11:58:41;;;;;;;0.80;0.50;;;;;;;;;;5015802;28;20081;-77
2022/07/17 12:01:07;;;;;;;1.88;0.40;;;;;;;;;;5015656;28;20048;-76
2022/07/17 12:03:32;;;;;;;1.70;0.77;;;21.90;99.90;;;;;;4999078;28;20038;-74
2022/07/17 12:05:58;;;;;;;0.65;0.40;;;21.90;99.90;;;;;;5015434;28;20420;-76
2022/07/17 12:08:24;;;;;;;1.77;0.73;;;21.90;99.90;;;;;;5015245;28;20041;-76
2022/07/17 12:11:04;;;;;;;1.27;0.73;;;22.00;99.90;;;;;;5015261;28;20053;-76
2022/07/17 12:13:44;;;;;;;3.67;0.60;;;22.00;99.90;;;;;;4998868;28;20099;-76
2022/07/17 12:16:31;;;;;;;2.38;0.60;;;22.00;99.90;;;;;;5015127;28;20053;-76
2022/07/17 12:19:05;;;;;;;0.80;0.47;;;22.10;99.90;;;;;;4998759;28;20447;-76
2022/07/17 12:21:33;;;;;;;1.35;0.50;;;22.20;99.90;;;;;;5015543;28;20103;-77
2022/07/17 12:24:06;;;;;;;1.42;0.80;;;22.30;99.90;;;;;;4982777;28;20463;-77
2022/07/17 12:26:33;;;;;;;1.65;0.68;;;22.30;99.90;;;;;;5015123;28;20448;-77
2022/07/17 12:28:59;;;;;;;3.33;1.00;;;22.40;99.90;;;;;;4982547;28;20051;-77
2022/07/17 12:31:25;;;;;;;1.60;0.68;;;22.40;99.90;;;;;;5015417;28;20501;-77
2022/07/17 12:33:54;;;;;;;2.05;0.65;;;22.60;99.90;;;;;;4999584;28;20041;-75
2022/07/17 12:36:22;;;;;;;0.50;0.47;;;22.70;99.90;;;;;;4982936;28;20559;-77
2022/07/17 12:38:48;;;;;;;1.30;1.02;;;22.80;99.90;;;;;;4982649;28;20045;-77
2022/07/17 12:41:14;;;;;;;1.90;0.70;;;22.60;99.90;;;;;;5015030;28;20497;-76
2022/07/17 12:43:40;;;;;;;0.70;0.55;;;22.70;99.90;;;;;;4998732;28;20397;-77
2022/07/17 12:46:05;;;;;;;2.90;0.80;;;22.70;99.90;;;;;;4998585;28;20072;-77
2022/07/17 12:48:31;;;;;;;1.75;0.75;;;22.80;99.90;;;;;;4982549;28;20044;-77
2022/07/17 12:50:57;;;;;;;2.75;0.90;;;22.90;99.90;;;;;;4998649;28;20500;-77
2022/07/17 12:53:23;;;;;;;1.25;0.68;;;22.90;99.90;;;;;;4999832;28;20087;-77
2022/07/17 12:55:48;;;;;;;1.00;0.65;;;22.70;99.90;;;;;;5002862;28;20042;-74
2022/07/17 12:58:14;;;;;;;1.48;0.60;;;22.80;99.90;;;;;;5018894;28;20091;-76
2022/07/17 13:00:40;;;;;;;1.85;0.75;;;22.80;99.90;;;;;;5018751;28;20130;-76